sensor_id;sensor_type;location;lat;lon;timestamp;P1;durP1;ratioP1;P2;durP2;ratioP2
72951;SDS011;61102;51.956;5.878;2023-03-01T00:00:04;4.07;;;1.10;;
72951;SDS011;61102;51.956;5.878;2023-03-01T00:02:37;3.75;;;1.00;;
72951;SDS011;61102;51.956;5.878;2023-03-01T00:05:03;5.20;;;1.23;;
72951;SDS011;61102;51.956;5.878;2023-03-01T00:07:29;3.03;;;0.80;;
72951;SDS011;61102;51.956;5.878;2023-03-01T00:09:58;2.55;;;0.88;;
72951;SDS011;61102;51.956;5.878;2023-03-01T00:12:24;3.22;;;0.82;;
72951;SDS011;61102;51.956;5.878;2023-03-01T00:14:50;2.17;;;0.77;;
72951;SDS011;61102;51.956;5.878;2023-03-01T00:17:16;1.90;;;0.77;;
72951;SDS011;61102;51.956;5.878;2023-03-01T00:19:42;2.58;;;0.80;;
72951;SDS011;61102;51.956;5.878;2023-03-01T00:22:11;2.80;;;0.80;;
72951;SDS011;61102;51.956;5.878;2023-03-01T00:24:37;3.83;;;1.10;;
72951;SDS011;61102;51.956;5.878;2023-03-01T00:27:04;3.47;;;0.95;;
72951;SDS011;61102;51.956;5.878;2023-03-01T00:29:30;2.28;;;0.70;;
72951;SDS011;61102;51.956;5.878;2023-03-01T00:31:56;3.13;;;0.90;;
72951;SDS011;61102;51.956;5.878;2023-03-01T00:34:22;4.05;;;1.15;;
72951;SDS011;61102;51.956;5.878;2023-03-01T00:36:48;2.95;;;0.88;;
72951;SDS011;61102;51.956;5.878;2023-03-01T00:39:14;3.30;;;0.88;;
72951;SDS011;61102;51.956;5.878;2023-03-01T00:41:41;1.92;;;0.68;;
72951;SDS011;61102;51.956;5.878;2023-03-01T00:44:11;2.90;;;0.88;;
72951;SDS011;61102;51.956;5.878;2023-03-01T00:46:37;3.63;;;0.90;;
72951;SDS011;61102;51.956;5.878;2023-03-01T00:49:04;3.63;;;1.00;;
72951;SDS011;61102;51.956;5.878;2023-03-01T00:51:30;2.47;;;0.88;;
72951;SDS011;61102;51.956;5.878;2023-03-01T00:53:57;3.40;;;0.98;;
72951;SDS011;61102;51.956;5.878;2023-03-01T00:56:25;3.63;;;1.10;;
72951;SDS011;61102;51.956;5.878;2023-03-01T00:59:02;2.17;;;0.88;;
72951;SDS011;61102;51.956;5.878;2023-03-01T01:01:29;3.20;;;0.90;;
72951;SDS011;61102;51.956;5.878;2023-03-01T01:03:57;2.97;;;0.70;;
72951;SDS011;61102;51.956;5.878;2023-03-01T01:06:27;3.53;;;1.10;;
72951;SDS011;61102;51.956;5.878;2023-03-01T01:08:55;3.13;;;0.90;;
72951;SDS011;61102;51.956;5.878;2023-03-01T01:11:23;3.25;;;1.00;;
72951;SDS011;61102;51.956;5.878;2023-03-01T01:13:50;3.45;;;0.80;;
72951;SDS011;61102;51.956;5.878;2023-03-01T01:16:18;3.13;;;0.88;;
72951;SDS011;61102;51.956;5.878;2023-03-01T01:18:46;4.53;;;1.10;;
72951;SDS011;61102;51.956;5.878;2023-03-01T01:21:13;5.18;;;1.30;;
72951;SDS011;61102;51.956;5.878;2023-03-01T01:23:41;3.75;;;1.10;;
72951;SDS011;61102;51.956;5.878;2023-03-01T01:26:09;5.63;;;1.88;;
72951;SDS011;61102;51.956;5.878;2023-03-01T01:28:37;4.70;;;1.50;;
72951;SDS011;61102;51.956;5.878;2023-03-01T01:31:04;6.68;;;1.92;;
72951;SDS011;61102;51.956;5.878;2023-03-01T01:33:31;7.88;;;1.98;;
72951;SDS011;61102;51.956;5.878;2023-03-01T01:35:58;4.13;;;1.45;;
72951;SDS011;61102;51.956;5.878;2023-03-01T01:38:24;5.38;;;1.70;;
72951;SDS011;61102;51.956;5.878;2023-03-01T01:40:50;6.05;;;2.03;;
72951;SDS011;61102;51.956;5.878;2023-03-01T01:43:20;6.32;;;2.13;;
72951;SDS011;61102;51.956;5.878;2023-03-01T01:45:52;7.15;;;2.53;;
72951;SDS011;61102;51.956;5.878;2023-03-01T01:48:23;8.23;;;2.78;;
72951;SDS011;61102;51.956;5.878;2023-03-01T01:51:01;6.25;;;2.33;;
72951;SDS011;61102;51.956;5.878;2023-03-01T01:53:28;5.82;;;2.00;;
72951;SDS011;61102;51.956;5.878;2023-03-01T01:55:55;5.82;;;1.92;;
72951;SDS011;61102;51.956;5.878;2023-03-01T01:58:26;4.65;;;1.52;;
72951;SDS011;61102;51.956;5.878;2023-03-01T02:00:55;6.00;;;1.70;;
72951;SDS011;61102;51.956;5.878;2023-03-01T02:03:26;6.15;;;1.90;;
72951;SDS011;61102;51.956;5.878;2023-03-01T02:08:36;4.97;;;1.60;;
72951;SDS011;61102;51.956;5.878;2023-03-01T02:11:05;5.68;;;1.85;;
72951;SDS011;61102;51.956;5.878;2023-03-01T02:13:32;4.35;;;1.65;;
72951;SDS011;61102;51.956;5.878;2023-03-01T02:15:59;6.63;;;1.98;;
72951;SDS011;61102;51.956;5.878;2023-03-01T02:18:28;6.55;;;2.00;;
72951;SDS011;61102;51.956;5.878;2023-03-01T02:23:27;4.95;;;1.75;;
72951;SDS011;61102;51.956;5.878;2023-03-01T02:28:36;5.80;;;1.75;;
72951;SDS011;61102;51.956;5.878;2023-03-01T02:31:07;7.53;;;2.22;;
72951;SDS011;61102;51.956;5.878;2023-03-01T02:33:54;4.88;;;1.70;;
72951;SDS011;61102;51.956;5.878;2023-03-01T02:36:22;4.75;;;1.63;;
72951;SDS011;61102;51.956;5.878;2023-03-01T02:38:51;5.13;;;1.70;;
72951;SDS011;61102;51.956;5.878;2023-03-01T02:41:21;6.22;;;1.60;;
72951;SDS011;61102;51.956;5.878;2023-03-01T02:43:50;4.82;;;1.52;;
72951;SDS011;61102;51.956;5.878;2023-03-01T02:46:17;4.88;;;1.35;;
72951;SDS011;61102;51.956;5.878;2023-03-01T02:48:47;4.30;;;1.27;;
72951;SDS011;61102;51.956;5.878;2023-03-01T02:51:27;4.85;;;1.45;;
72951;SDS011;61102;51.956;5.878;2023-03-01T02:54:15;5.25;;;1.42;;
72951;SDS011;61102;51.956;5.878;2023-03-01T02:56:43;3.90;;;1.17;;
72951;SDS011;61102;51.956;5.878;2023-03-01T02:59:16;3.25;;;1.08;;
72951;SDS011;61102;51.956;5.878;2023-03-01T03:01:45;4.47;;;1.33;;
72951;SDS011;61102;51.956;5.878;2023-03-01T03:04:16;4.35;;;1.38;;
72951;SDS011;61102;51.956;5.878;2023-03-01T03:06:46;4.55;;;1.30;;
72951;SDS011;61102;51.956;5.878;2023-03-01T03:09:15;3.45;;;1.20;;
72951;SDS011;61102;51.956;5.878;2023-03-01T03:11:42;4.15;;;1.02;;
72951;SDS011;61102;51.956;5.878;2023-03-01T03:14:09;3.67;;;1.20;;
72951;SDS011;61102;51.956;5.878;2023-03-01T03:16:44;3.22;;;1.10;;
72951;SDS011;61102;51.956;5.878;2023-03-01T03:19:12;2.65;;;0.95;;
72951;SDS011;61102;51.956;5.878;2023-03-01T03:21:38;4.18;;;1.15;;
72951;SDS011;61102;51.956;5.878;2023-03-01T03:24:05;2.53;;;0.80;;
72951;SDS011;61102;51.956;5.878;2023-03-01T03:26:31;3.13;;;0.95;;
72951;SDS011;61102;51.956;5.878;2023-03-01T03:28:57;4.35;;;1.20;;
72951;SDS011;61102;51.956;5.878;2023-03-01T03:31:24;4.47;;;1.00;;
72951;SDS011;61102;51.956;5.878;2023-03-01T03:33:50;3.42;;;1.00;;
72951;SDS011;61102;51.956;5.878;2023-03-01T03:36:17;3.55;;;1.00;;
72951;SDS011;61102;51.956;5.878;2023-03-01T03:38:45;3.97;;;1.15;;
72951;SDS011;61102;51.956;5.878;2023-03-01T03:41:12;3.88;;;1.10;;
72951;SDS011;61102;51.956;5.878;2023-03-01T03:43:39;3.35;;;0.98;;
72951;SDS011;61102;51.956;5.878;2023-03-01T03:46:06;3.17;;;0.82;;
72951;SDS011;61102;51.956;5.878;2023-03-01T03:48:33;3.35;;;0.90;;
72951;SDS011;61102;51.956;5.878;2023-03-01T03:51:00;3.13;;;1.08;;
72951;SDS011;61102;51.956;5.878;2023-03-01T03:53:27;3.92;;;1.20;;
72951;SDS011;61102;51.956;5.878;2023-03-01T03:58:21;2.83;;;0.90;;
72951;SDS011;61102;51.956;5.878;2023-03-01T04:00:50;4.07;;;0.90;;
72951;SDS011;61102;51.956;5.878;2023-03-01T04:03:19;2.75;;;1.00;;
72951;SDS011;61102;51.956;5.878;2023-03-01T04:05:46;3.17;;;0.80;;
72951;SDS011;61102;51.956;5.878;2023-03-01T04:08:12;3.95;;;1.00;;
72951;SDS011;61102;51.956;5.878;2023-03-01T04:10:40;3.72;;;1.05;;
72951;SDS011;61102;51.956;5.878;2023-03-01T04:13:09;4.13;;;1.13;;
72951;SDS011;61102;51.956;5.878;2023-03-01T04:15:39;3.60;;;1.17;;
72951;SDS011;61102;51.956;5.878;2023-03-01T04:18:06;3.58;;;1.17;;
72951;SDS011;61102;51.956;5.878;2023-03-01T04:20:33;4.38;;;1.25;;
72951;SDS011;61102;51.956;5.878;2023-03-01T04:23:05;3.97;;;1.20;;
72951;SDS011;61102;51.956;5.878;2023-03-01T04:28:24;3.33;;;1.00;;
72951;SDS011;61102;51.956;5.878;2023-03-01T04:30:53;4.15;;;1.05;;
72951;SDS011;61102;51.956;5.878;2023-03-01T04:35:46;3.15;;;1.00;;
72951;SDS011;61102;51.956;5.878;2023-03-01T04:40:44;3.78;;;1.10;;
72951;SDS011;61102;51.956;5.878;2023-03-01T04:43:11;2.72;;;0.95;;
72951;SDS011;61102;51.956;5.878;2023-03-01T04:45:40;4.20;;;1.23;;
72951;SDS011;61102;51.956;5.878;2023-03-01T04:48:07;3.50;;;1.00;;
72951;SDS011;61102;51.956;5.878;2023-03-01T04:50:33;3.95;;;1.10;;
72951;SDS011;61102;51.956;5.878;2023-03-01T04:53:00;3.65;;;1.20;;
72951;SDS011;61102;51.956;5.878;2023-03-01T04:55:27;2.83;;;0.80;;
72951;SDS011;61102;51.956;5.878;2023-03-01T04:57:54;2.85;;;0.82;;
72951;SDS011;61102;51.956;5.878;2023-03-01T05:00:20;3.28;;;0.95;;
72951;SDS011;61102;51.956;5.878;2023-03-01T05:02:52;3.05;;;1.00;;
72951;SDS011;61102;51.956;5.878;2023-03-01T05:05:27;3.20;;;0.93;;
72951;SDS011;61102;51.956;5.878;2023-03-01T05:07:56;2.45;;;0.85;;
72951;SDS011;61102;51.956;5.878;2023-03-01T05:10:24;4.63;;;1.30;;
72951;SDS011;61102;51.956;5.878;2023-03-01T05:12:51;3.40;;;0.98;;
72951;SDS011;61102;51.956;5.878;2023-03-01T05:15:18;3.38;;;0.90;;
72951;SDS011;61102;51.956;5.878;2023-03-01T05:17:48;2.53;;;1.00;;
72951;SDS011;61102;51.956;5.878;2023-03-01T05:20:15;3.05;;;0.90;;
72951;SDS011;61102;51.956;5.878;2023-03-01T05:22:43;2.45;;;0.85;;
72951;SDS011;61102;51.956;5.878;2023-03-01T05:25:09;2.63;;;0.80;;
72951;SDS011;61102;51.956;5.878;2023-03-01T05:27:35;3.33;;;0.90;;
72951;SDS011;61102;51.956;5.878;2023-03-01T05:30:02;3.17;;;0.90;;
72951;SDS011;61102;51.956;5.878;2023-03-01T05:32:42;3.38;;;0.98;;
72951;SDS011;61102;51.956;5.878;2023-03-01T05:35:11;2.97;;;0.90;;
72951;SDS011;61102;51.956;5.878;2023-03-01T05:37:45;3.53;;;0.93;;
72951;SDS011;61102;51.956;5.878;2023-03-01T05:40:14;4.20;;;1.10;;
72951;SDS011;61102;51.956;5.878;2023-03-01T05:42:54;2.10;;;0.73;;
72951;SDS011;61102;51.956;5.878;2023-03-01T05:45:22;3.75;;;1.05;;
72951;SDS011;61102;51.956;5.878;2023-03-01T05:50:17;4.07;;;1.35;;
72951;SDS011;61102;51.956;5.878;2023-03-01T05:53:01;3.78;;;1.02;;
72951;SDS011;61102;51.956;5.878;2023-03-01T05:55:34;4.13;;;1.02;;
72951;SDS011;61102;51.956;5.878;2023-03-01T05:58:01;2.92;;;1.00;;
72951;SDS011;61102;51.956;5.878;2023-03-01T06:00:29;3.28;;;1.00;;
72951;SDS011;61102;51.956;5.878;2023-03-01T06:02:56;3.65;;;0.90;;
72951;SDS011;61102;51.956;5.878;2023-03-01T06:05:23;3.70;;;1.00;;
72951;SDS011;61102;51.956;5.878;2023-03-01T06:07:51;2.40;;;0.88;;
72951;SDS011;61102;51.956;5.878;2023-03-01T06:10:18;2.83;;;0.95;;
72951;SDS011;61102;51.956;5.878;2023-03-01T06:15:13;4.10;;;1.00;;
72951;SDS011;61102;51.956;5.878;2023-03-01T06:17:44;3.83;;;1.00;;
72951;SDS011;61102;51.956;5.878;2023-03-01T06:20:19;3.53;;;1.15;;
72951;SDS011;61102;51.956;5.878;2023-03-01T06:22:47;3.78;;;1.10;;
72951;SDS011;61102;51.956;5.878;2023-03-01T06:25:15;2.70;;;0.82;;
72951;SDS011;61102;51.956;5.878;2023-03-01T06:27:43;3.10;;;1.00;;
72951;SDS011;61102;51.956;5.878;2023-03-01T06:30:11;2.70;;;0.93;;
72951;SDS011;61102;51.956;5.878;2023-03-01T06:32:40;3.38;;;0.90;;
72951;SDS011;61102;51.956;5.878;2023-03-01T06:35:07;1.80;;;0.70;;
72951;SDS011;61102;51.956;5.878;2023-03-01T06:37:35;3.53;;;0.90;;
72951;SDS011;61102;51.956;5.878;2023-03-01T06:40:03;4.10;;;1.20;;
72951;SDS011;61102;51.956;5.878;2023-03-01T06:42:36;3.10;;;0.90;;
72951;SDS011;61102;51.956;5.878;2023-03-01T06:45:04;5.18;;;1.45;;
72951;SDS011;61102;51.956;5.878;2023-03-01T06:47:32;3.33;;;0.98;;
72951;SDS011;61102;51.956;5.878;2023-03-01T06:50:01;3.80;;;1.13;;
72951;SDS011;61102;51.956;5.878;2023-03-01T06:52:28;4.88;;;1.75;;
72951;SDS011;61102;51.956;5.878;2023-03-01T06:54:55;5.05;;;1.75;;
72951;SDS011;61102;51.956;5.878;2023-03-01T06:57:23;5.78;;;1.40;;
72951;SDS011;61102;51.956;5.878;2023-03-01T06:59:49;3.67;;;1.30;;
72951;SDS011;61102;51.956;5.878;2023-03-01T07:02:15;6.65;;;1.95;;
72951;SDS011;61102;51.956;5.878;2023-03-01T07:04:41;4.85;;;1.55;;
72951;SDS011;61102;51.956;5.878;2023-03-01T07:07:08;3.92;;;1.33;;
72951;SDS011;61102;51.956;5.878;2023-03-01T07:09:34;5.10;;;1.48;;
72951;SDS011;61102;51.956;5.878;2023-03-01T07:12:00;4.40;;;1.30;;
72951;SDS011;61102;51.956;5.878;2023-03-01T07:14:27;6.90;;;2.15;;
72951;SDS011;61102;51.956;5.878;2023-03-01T07:16:53;5.60;;;1.88;;
72951;SDS011;61102;51.956;5.878;2023-03-01T07:19:20;6.05;;;1.80;;
72951;SDS011;61102;51.956;5.878;2023-03-01T07:21:46;5.95;;;2.10;;
72951;SDS011;61102;51.956;5.878;2023-03-01T07:24:13;7.90;;;2.20;;
72951;SDS011;61102;51.956;5.878;2023-03-01T07:26:39;9.48;;;2.60;;
72951;SDS011;61102;51.956;5.878;2023-03-01T07:29:05;5.90;;;2.03;;
72951;SDS011;61102;51.956;5.878;2023-03-01T07:31:33;7.65;;;2.65;;
72951;SDS011;61102;51.956;5.878;2023-03-01T07:33:59;7.32;;;2.90;;
72951;SDS011;61102;51.956;5.878;2023-03-01T07:36:25;7.55;;;2.63;;
72951;SDS011;61102;51.956;5.878;2023-03-01T07:38:51;6.60;;;2.33;;
72951;SDS011;61102;51.956;5.878;2023-03-01T07:41:17;7.10;;;2.00;;
72951;SDS011;61102;51.956;5.878;2023-03-01T07:43:43;4.85;;;1.73;;
72951;SDS011;61102;51.956;5.878;2023-03-01T07:46:10;6.82;;;1.90;;
72951;SDS011;61102;51.956;5.878;2023-03-01T07:48:36;5.60;;;1.63;;
72951;SDS011;61102;51.956;5.878;2023-03-01T07:51:03;6.05;;;2.17;;
72951;SDS011;61102;51.956;5.878;2023-03-01T07:53:30;6.13;;;1.77;;
72951;SDS011;61102;51.956;5.878;2023-03-01T07:56:04;7.20;;;2.42;;
72951;SDS011;61102;51.956;5.878;2023-03-01T07:58:40;7.63;;;2.88;;
72951;SDS011;61102;51.956;5.878;2023-03-01T08:01:09;7.45;;;2.40;;
72951;SDS011;61102;51.956;5.878;2023-03-01T08:03:37;8.88;;;3.20;;
72951;SDS011;61102;51.956;5.878;2023-03-01T08:06:05;6.90;;;2.30;;
72951;SDS011;61102;51.956;5.878;2023-03-01T08:08:33;8.05;;;2.70;;
72951;SDS011;61102;51.956;5.878;2023-03-01T08:11:00;9.70;;;3.35;;
72951;SDS011;61102;51.956;5.878;2023-03-01T08:13:27;6.13;;;2.10;;
72951;SDS011;61102;51.956;5.878;2023-03-01T08:15:54;9.70;;;3.47;;
72951;SDS011;61102;51.956;5.878;2023-03-01T08:18:20;7.93;;;2.97;;
72951;SDS011;61102;51.956;5.878;2023-03-01T08:20:47;7.00;;;2.47;;
72951;SDS011;61102;51.956;5.878;2023-03-01T08:23:13;6.65;;;2.30;;
72951;SDS011;61102;51.956;5.878;2023-03-01T08:25:39;7.10;;;2.72;;
72951;SDS011;61102;51.956;5.878;2023-03-01T08:28:07;8.57;;;3.15;;
72951;SDS011;61102;51.956;5.878;2023-03-01T08:30:33;9.65;;;2.92;;
72951;SDS011;61102;51.956;5.878;2023-03-01T08:32:59;9.13;;;3.72;;
72951;SDS011;61102;51.956;5.878;2023-03-01T08:35:25;7.53;;;2.80;;
72951;SDS011;61102;51.956;5.878;2023-03-01T08:37:51;7.07;;;2.47;;
72951;SDS011;61102;51.956;5.878;2023-03-01T08:40:21;7.75;;;2.20;;
72951;SDS011;61102;51.956;5.878;2023-03-01T08:42:47;6.82;;;2.35;;
72951;SDS011;61102;51.956;5.878;2023-03-01T08:45:13;7.93;;;2.20;;
72951;SDS011;61102;51.956;5.878;2023-03-01T08:47:43;6.80;;;2.10;;
72951;SDS011;61102;51.956;5.878;2023-03-01T08:50:10;6.82;;;2.30;;
72951;SDS011;61102;51.956;5.878;2023-03-01T08:52:36;5.53;;;1.85;;
72951;SDS011;61102;51.956;5.878;2023-03-01T08:55:02;8.13;;;2.78;;
72951;SDS011;61102;51.956;5.878;2023-03-01T08:57:29;6.38;;;2.17;;
72951;SDS011;61102;51.956;5.878;2023-03-01T08:59:55;8.52;;;2.25;;
72951;SDS011;61102;51.956;5.878;2023-03-01T09:02:21;8.82;;;2.90;;
72951;SDS011;61102;51.956;5.878;2023-03-01T09:04:47;6.93;;;2.22;;
72951;SDS011;61102;51.956;5.878;2023-03-01T09:07:13;7.25;;;2.47;;
72951;SDS011;61102;51.956;5.878;2023-03-01T09:09:39;7.28;;;2.67;;
72951;SDS011;61102;51.956;5.878;2023-03-01T09:12:05;7.60;;;3.03;;
72951;SDS011;61102;51.956;5.878;2023-03-01T09:14:33;6.85;;;2.30;;
72951;SDS011;61102;51.956;5.878;2023-03-01T09:16:59;6.88;;;2.40;;
72951;SDS011;61102;51.956;5.878;2023-03-01T09:19:28;7.32;;;2.65;;
72951;SDS011;61102;51.956;5.878;2023-03-01T09:21:54;7.85;;;2.33;;
72951;SDS011;61102;51.956;5.878;2023-03-01T09:24:22;8.10;;;2.20;;
72951;SDS011;61102;51.956;5.878;2023-03-01T09:26:49;7.80;;;2.97;;
72951;SDS011;61102;51.956;5.878;2023-03-01T09:29:19;7.38;;;2.60;;
72951;SDS011;61102;51.956;5.878;2023-03-01T09:31:45;9.35;;;2.20;;
72951;SDS011;61102;51.956;5.878;2023-03-01T09:34:11;6.68;;;2.10;;
72951;SDS011;61102;51.956;5.878;2023-03-01T09:36:38;10.40;;;2.35;;
72951;SDS011;61102;51.956;5.878;2023-03-01T09:39:04;10.10;;;2.53;;
72951;SDS011;61102;51.956;5.878;2023-03-01T09:41:50;6.65;;;2.53;;
72951;SDS011;61102;51.956;5.878;2023-03-01T09:44:48;6.80;;;2.28;;
72951;SDS011;61102;51.956;5.878;2023-03-01T09:47:19;6.07;;;2.08;;
72951;SDS011;61102;51.956;5.878;2023-03-01T09:49:53;7.80;;;2.33;;
72951;SDS011;61102;51.956;5.878;2023-03-01T09:55:13;8.00;;;2.70;;
72951;SDS011;61102;51.956;5.878;2023-03-01T10:00:20;7.75;;;2.53;;
72951;SDS011;61102;51.956;5.878;2023-03-01T10:03:02;8.32;;;2.83;;
72951;SDS011;61102;51.956;5.878;2023-03-01T10:11:47;7.78;;;2.85;;
72951;SDS011;61102;51.956;5.878;2023-03-01T10:16:53;8.43;;;3.60;;
72951;SDS011;61102;51.956;5.878;2023-03-01T10:19:27;9.52;;;3.00;;
72951;SDS011;61102;51.956;5.878;2023-03-01T10:22:00;8.40;;;3.00;;
72951;SDS011;61102;51.956;5.878;2023-03-01T10:24:32;9.15;;;3.20;;
72951;SDS011;61102;51.956;5.878;2023-03-01T10:27:02;8.85;;;3.10;;
72951;SDS011;61102;51.956;5.878;2023-03-01T10:30:12;8.30;;;2.55;;
72951;SDS011;61102;51.956;5.878;2023-03-01T10:32:36;11.40;;;3.40;;
72951;SDS011;61102;51.956;5.878;2023-03-01T10:40:28;9.15;;;3.20;;
72951;SDS011;61102;51.956;5.878;2023-03-01T10:42:56;8.15;;;3.03;;
72951;SDS011;61102;51.956;5.878;2023-03-01T10:53:38;8.50;;;2.83;;
72951;SDS011;61102;51.956;5.878;2023-03-01T10:56:11;8.57;;;2.72;;
72951;SDS011;61102;51.956;5.878;2023-03-01T10:58:40;9.60;;;2.90;;
72951;SDS011;61102;51.956;5.878;2023-03-01T11:01:29;8.73;;;2.92;;
72951;SDS011;61102;51.956;5.878;2023-03-01T11:06:33;7.15;;;2.22;;
72951;SDS011;61102;51.956;5.878;2023-03-01T11:11:44;7.75;;;2.28;;
72951;SDS011;61102;51.956;5.878;2023-03-01T11:14:18;6.50;;;2.38;;
72951;SDS011;61102;51.956;5.878;2023-03-01T11:16:48;9.25;;;3.15;;
72951;SDS011;61102;51.956;5.878;2023-03-01T11:19:23;6.68;;;2.42;;
72951;SDS011;61102;51.956;5.878;2023-03-01T11:21:59;6.95;;;2.30;;
72951;SDS011;61102;51.956;5.878;2023-03-01T11:27:18;5.65;;;1.77;;
72951;SDS011;61102;51.956;5.878;2023-03-01T11:29:51;7.22;;;2.67;;
72951;SDS011;61102;51.956;5.878;2023-03-01T11:32:18;7.35;;;2.35;;
72951;SDS011;61102;51.956;5.878;2023-03-01T11:34:51;7.13;;;2.33;;
72951;SDS011;61102;51.956;5.878;2023-03-01T11:45:08;8.02;;;2.40;;
72951;SDS011;61102;51.956;5.878;2023-03-01T11:47:59;6.82;;;2.08;;
72951;SDS011;61102;51.956;5.878;2023-03-01T11:50:29;6.78;;;2.22;;
72951;SDS011;61102;51.956;5.878;2023-03-01T11:56:04;6.75;;;2.03;;
72951;SDS011;61102;51.956;5.878;2023-03-01T11:59:03;7.18;;;2.20;;
72951;SDS011;61102;51.956;5.878;2023-03-01T12:01:49;7.25;;;2.60;;
72951;SDS011;61102;51.956;5.878;2023-03-01T12:04:36;5.43;;;1.90;;
72951;SDS011;61102;51.956;5.878;2023-03-01T12:10:32;8.35;;;2.30;;
72951;SDS011;61102;51.956;5.878;2023-03-01T12:13:27;7.93;;;2.35;;
72951;SDS011;61102;51.956;5.878;2023-03-01T12:19:08;6.93;;;2.40;;
72951;SDS011;61102;51.956;5.878;2023-03-01T12:31:06;7.53;;;3.00;;
72951;SDS011;61102;51.956;5.878;2023-03-01T12:39:22;6.38;;;2.00;;
72951;SDS011;61102;51.956;5.878;2023-03-01T12:45:06;7.18;;;2.53;;
72951;SDS011;61102;51.956;5.878;2023-03-01T12:50:29;7.68;;;2.03;;
72951;SDS011;61102;51.956;5.878;2023-03-01T12:53:13;6.60;;;2.42;;
72951;SDS011;61102;51.956;5.878;2023-03-01T12:56:05;7.80;;;1.90;;
72951;SDS011;61102;51.956;5.878;2023-03-01T12:58:51;6.28;;;2.05;;
72951;SDS011;61102;51.956;5.878;2023-03-01T13:05:05;6.32;;;2.08;;
72951;SDS011;61102;51.956;5.878;2023-03-01T13:15:48;6.55;;;1.98;;
72951;SDS011;61102;51.956;5.878;2023-03-01T13:20:46;6.28;;;1.88;;
72951;SDS011;61102;51.956;5.878;2023-03-01T13:23:23;7.75;;;2.50;;
72951;SDS011;61102;51.956;5.878;2023-03-01T13:33:45;4.95;;;1.27;;
72951;SDS011;61102;51.956;5.878;2023-03-01T13:38:58;7.63;;;2.47;;
72951;SDS011;61102;51.956;5.878;2023-03-01T13:47:00;6.65;;;2.08;;
72951;SDS011;61102;51.956;5.878;2023-03-01T13:49:41;6.18;;;1.88;;
72951;SDS011;61102;51.956;5.878;2023-03-01T13:57:41;8.10;;;2.63;;
72951;SDS011;61102;51.956;5.878;2023-03-01T14:03:18;8.48;;;2.22;;
72951;SDS011;61102;51.956;5.878;2023-03-01T14:08:24;6.38;;;2.42;;
72951;SDS011;61102;51.956;5.878;2023-03-01T14:16:24;5.65;;;1.60;;
72951;SDS011;61102;51.956;5.878;2023-03-01T14:19:00;7.05;;;1.88;;
72951;SDS011;61102;51.956;5.878;2023-03-01T14:21:44;6.82;;;2.33;;
72951;SDS011;61102;51.956;5.878;2023-03-01T14:24:21;7.57;;;2.72;;
72951;SDS011;61102;51.956;5.878;2023-03-01T14:26:49;7.35;;;1.92;;
72951;SDS011;61102;51.956;5.878;2023-03-01T14:29:53;6.55;;;2.05;;
72951;SDS011;61102;51.956;5.878;2023-03-01T14:34:44;6.90;;;2.55;;
72951;SDS011;61102;51.956;5.878;2023-03-01T14:37:31;5.63;;;1.83;;
72951;SDS011;61102;51.956;5.878;2023-03-01T14:39:59;7.68;;;2.60;;
72951;SDS011;61102;51.956;5.878;2023-03-01T14:42:35;7.28;;;1.80;;
72951;SDS011;61102;51.956;5.878;2023-03-01T14:45:02;8.88;;;2.38;;
72951;SDS011;61102;51.956;5.878;2023-03-01T14:49:59;7.13;;;2.53;;
72951;SDS011;61102;51.956;5.878;2023-03-01T14:52:53;7.57;;;2.40;;
72951;SDS011;61102;51.956;5.878;2023-03-01T14:55:24;8.23;;;2.33;;
72951;SDS011;61102;51.956;5.878;2023-03-01T14:57:54;5.65;;;1.90;;
72951;SDS011;61102;51.956;5.878;2023-03-01T15:00:23;6.60;;;1.60;;
72951;SDS011;61102;51.956;5.878;2023-03-01T15:02:54;6.57;;;2.00;;
72951;SDS011;61102;51.956;5.878;2023-03-01T15:05:29;7.97;;;2.35;;
72951;SDS011;61102;51.956;5.878;2023-03-01T15:07:57;6.18;;;2.03;;
72951;SDS011;61102;51.956;5.878;2023-03-01T15:10:26;5.65;;;1.80;;
72951;SDS011;61102;51.956;5.878;2023-03-01T15:12:55;6.53;;;1.85;;
72951;SDS011;61102;51.956;5.878;2023-03-01T15:17:56;6.85;;;2.33;;
72951;SDS011;61102;51.956;5.878;2023-03-01T15:20:25;6.45;;;2.00;;
72951;SDS011;61102;51.956;5.878;2023-03-01T15:22:55;5.72;;;1.85;;
72951;SDS011;61102;51.956;5.878;2023-03-01T15:25:26;6.50;;;2.03;;
72951;SDS011;61102;51.956;5.878;2023-03-01T15:27:55;4.80;;;1.55;;
72951;SDS011;61102;51.956;5.878;2023-03-01T15:30:25;4.45;;;1.38;;
72951;SDS011;61102;51.956;5.878;2023-03-01T15:35:55;6.40;;;1.85;;
72951;SDS011;61102;51.956;5.878;2023-03-01T15:41:01;7.10;;;2.20;;
72951;SDS011;61102;51.956;5.878;2023-03-01T15:43:43;6.80;;;1.83;;
72951;SDS011;61102;51.956;5.878;2023-03-01T15:46:32;5.85;;;1.70;;
72951;SDS011;61102;51.956;5.878;2023-03-01T15:49:01;8.02;;;2.08;;
72951;SDS011;61102;51.956;5.878;2023-03-01T15:51:30;6.45;;;2.00;;
72951;SDS011;61102;51.956;5.878;2023-03-01T15:54:06;5.45;;;1.90;;
72951;SDS011;61102;51.956;5.878;2023-03-01T15:56:41;6.43;;;1.92;;
72951;SDS011;61102;51.956;5.878;2023-03-01T15:59:08;7.57;;;2.47;;
72951;SDS011;61102;51.956;5.878;2023-03-01T16:01:37;6.70;;;2.22;;
72951;SDS011;61102;51.956;5.878;2023-03-01T16:04:05;7.70;;;2.40;;
72951;SDS011;61102;51.956;5.878;2023-03-01T16:06:31;6.00;;;1.67;;
72951;SDS011;61102;51.956;5.878;2023-03-01T16:08:58;9.02;;;2.22;;
72951;SDS011;61102;51.956;5.878;2023-03-01T16:11:24;7.28;;;1.83;;
72951;SDS011;61102;51.956;5.878;2023-03-01T16:13:50;4.05;;;1.25;;
72951;SDS011;61102;51.956;5.878;2023-03-01T16:16:16;5.40;;;1.60;;
72951;SDS011;61102;51.956;5.878;2023-03-01T16:18:44;6.20;;;1.95;;
72951;SDS011;61102;51.956;5.878;2023-03-01T16:21:21;6.93;;;2.20;;
72951;SDS011;61102;51.956;5.878;2023-03-01T16:23:49;6.75;;;1.73;;
72951;SDS011;61102;51.956;5.878;2023-03-01T16:26:16;7.68;;;2.28;;
72951;SDS011;61102;51.956;5.878;2023-03-01T16:28:44;6.22;;;1.80;;
72951;SDS011;61102;51.956;5.878;2023-03-01T16:31:11;5.35;;;1.80;;
72951;SDS011;61102;51.956;5.878;2023-03-01T16:33:39;5.30;;;1.35;;
72951;SDS011;61102;51.956;5.878;2023-03-01T16:36:07;3.83;;;1.27;;
72951;SDS011;61102;51.956;5.878;2023-03-01T16:38:34;5.93;;;1.58;;
72951;SDS011;61102;51.956;5.878;2023-03-01T16:41:00;4.60;;;1.55;;
72951;SDS011;61102;51.956;5.878;2023-03-01T16:43:27;7.13;;;1.85;;
72951;SDS011;61102;51.956;5.878;2023-03-01T16:45:54;4.38;;;1.50;;
72951;SDS011;61102;51.956;5.878;2023-03-01T16:48:21;4.43;;;1.40;;
72951;SDS011;61102;51.956;5.878;2023-03-01T16:50:57;5.15;;;1.40;;
72951;SDS011;61102;51.956;5.878;2023-03-01T16:53:24;6.20;;;1.50;;
72951;SDS011;61102;51.956;5.878;2023-03-01T16:55:54;4.95;;;1.30;;
72951;SDS011;61102;51.956;5.878;2023-03-01T16:58:24;5.85;;;1.52;;
72951;SDS011;61102;51.956;5.878;2023-03-01T17:00:53;4.50;;;1.35;;
72951;SDS011;61102;51.956;5.878;2023-03-01T17:03:21;5.15;;;1.48;;
72951;SDS011;61102;51.956;5.878;2023-03-01T17:05:48;5.75;;;1.60;;
72951;SDS011;61102;51.956;5.878;2023-03-01T17:08:14;5.85;;;1.90;;
72951;SDS011;61102;51.956;5.878;2023-03-01T17:10:41;6.13;;;1.88;;
72951;SDS011;61102;51.956;5.878;2023-03-01T17:13:08;3.47;;;0.95;;
72951;SDS011;61102;51.956;5.878;2023-03-01T17:15:37;5.15;;;1.25;;
72951;SDS011;61102;51.956;5.878;2023-03-01T17:18:04;6.07;;;1.67;;
72951;SDS011;61102;51.956;5.878;2023-03-01T17:20:30;5.95;;;1.52;;
72951;SDS011;61102;51.956;5.878;2023-03-01T17:23:00;4.93;;;1.45;;
72951;SDS011;61102;51.956;5.878;2023-03-01T17:25:27;7.20;;;2.10;;
72951;SDS011;61102;51.956;5.878;2023-03-01T17:27:53;7.60;;;2.30;;
72951;SDS011;61102;51.956;5.878;2023-03-01T17:30:19;6.63;;;1.52;;
72951;SDS011;61102;51.956;5.878;2023-03-01T17:32:45;5.20;;;1.60;;
72951;SDS011;61102;51.956;5.878;2023-03-01T17:35:14;5.88;;;1.60;;
72951;SDS011;61102;51.956;5.878;2023-03-01T17:37:40;12.13;;;2.55;;
72951;SDS011;61102;51.956;5.878;2023-03-01T17:40:13;4.32;;;1.30;;